Time;durP1;ratioP1;P1;durP2;ratioP2;P2;SDS_P1;SDS_P2;PMS_P1;PMS_P2;Temp;Humidity;BMP_temperature;BMP_pressure;BME280_temperature;BME280_humidity;BME280_pressure;Samples;Min_cycle;Max_cycle;Signal;HPM_P1;HPM_P2
2022/01/19 00:01:31;;;;;;;;;14.80;14.80;;;;;;;;5266311;28;8788;-67
2022/01/19 00:04:02;;;;;;;;;39.80;36.60;;;;;;;;5266397;28;8768;-67
2022/01/19 00:06:33;;;;;;;;;40.40;37.00;;;;;;;;5267034;28;8792;-67
2022/01/19 00:09:04;;;;;;;;;36.00;33.80;;;;;;;;5265831;28;9495;-67
2022/01/19 00:11:35;;;;;;;;;46.40;44.00;;;;;;;;5267490;28;8796;-67
2022/01/19 00:14:06;;;;;;;;;39.40;36.60;;;;;;;;5248931;28;8788;-67
2022/01/19 00:16:37;;;;;;;;;47.25;43.25;;;;;;;;5266163;28;8792;-66
2022/01/19 00:19:08;;;;;;;;;31.20;29.80;;;;;;;;5266736;28;11704;-67
2022/01/19 00:21:39;;;;;;;;;20.50;20.25;;;;;;;;5265854;28;8922;-67
2022/01/19 00:24:10;;;;;;;;;16.00;16.00;;;;;;;;5249073;28;10957;-67
2022/01/19 00:26:42;;;;;;;;;16.40;16.40;;;;;;;;5248865;28;8894;-67
2022/01/19 00:29:13;;;;;;;;;17.20;17.20;;;;;;;;5266077;28;8927;-66
2022/01/19 00:31:44;;;;;;;;;10.00;10.00;;;;;;;;5248864;28;9642;-66
2022/01/19 00:34:33;;;;;;;;;17.40;17.20;;;;;;;;5266059;28;8760;-67
2022/01/19 00:37:04;;;;;;;;;12.50;12.00;;;;;;;;5265821;28;8787;-66
2022/01/19 00:39:36;;;;;;;;;16.60;16.60;;;;;;;;5249295;28;12179;-67
2022/01/19 00:42:07;;;;;;;;;19.25;19.25;;;;;;;;5266133;28;8796;-67
2022/01/19 00:44:38;;;;;;;;;16.20;16.20;;;;;;;;5249163;28;8779;-67
2022/01/19 00:47:09;;;;;;;;;12.60;10.40;;;;;;;;5249095;28;8798;-67
2022/01/19 00:49:42;;;;;;;;;19.00;18.00;;;;;;;;5267691;28;8791;-67
2022/01/19 00:52:13;;;;;;;;;10.00;9.60;;;;;;;;5249434;28;8790;-67
2022/01/19 00:54:44;;;;;;;;;22.00;21.80;;;;;;;;5248701;28;8801;-68
2022/01/19 00:57:16;;;;;;;;;15.60;15.60;;;;;;;;5250321;28;8794;-68
2022/01/19 00:59:47;;;;;;;;;14.40;14.40;;;;;;;;5271960;28;8783;-68
2022/01/19 01:02:18;;;;;;;;;24.80;24.80;;;;;;;;5271430;28;8786;-68
2022/01/19 01:04:49;;;;;;;;;53.00;45.80;;;;;;;;5252670;28;8814;-68
2022/01/19 01:07:20;;;;;;;;;28.40;28.40;;;;;;;;5252047;28;8782;-67
2022/01/19 01:09:51;;;;;;;;;29.00;28.50;;;;;;;;5270578;28;8786;-67
2022/01/19 01:12:49;;;;;;;;;24.00;23.40;;;;;;;;5255174;28;8778;-67
2022/01/19 01:16:00;;;;;;;;;16.60;15.80;;;;;;;;5238072;28;8832;-67
2022/01/19 01:18:33;;;;;;;;;11.00;11.00;;;;;;;;5252652;28;9504;-67
2022/01/19 01:21:06;;;;;;;;;4.00;4.00;;;;;;;;5269939;28;8762;-66
2022/01/19 01:23:37;;;;;;;;;1.00;1.00;;;;;;;;5270690;28;8791;-67
2022/01/19 01:26:09;;;;;;;;;13.40;13.40;;;;;;;;5270683;28;11375;-67
2022/01/19 01:28:40;;;;;;;;;10.20;10.20;;;;;;;;5269353;28;8841;-67
2022/01/19 01:31:11;;;;;;;;;19.00;18.80;;;;;;;;5268611;28;8796;-67
2022/01/19 01:33:43;;;;;;;;;15.40;15.40;;;;;;;;5218865;28;8792;-67
2022/01/19 01:36:15;;;;;;;;;13.00;12.80;;;;;;;;5268731;28;8783;-67
2022/01/19 01:39:05;;;;;;;;;13.20;13.20;;;;;;;;5268778;28;8798;-67
2022/01/19 01:41:36;;;;;;;;;19.00;19.00;;;;;;;;5269741;28;8776;-66
2022/01/19 01:44:17;;;;;;;;;15.80;15.80;;;;;;;;5268625;28;8784;-66
2022/01/19 01:47:07;;;;;;;;;23.00;21.60;;;;;;;;5269764;28;9475;-67
2022/01/19 01:55:04;;;;;;;;;9.60;9.60;;;;;;;;5269509;28;8837;-67
2022/01/19 01:57:35;;;;;;;;;15.40;14.20;;;;;;;;5268485;28;8788;-67
2022/01/19 02:00:08;;;;;;;;;7.80;7.80;;;;;;;;5270049;28;8858;-67
2022/01/19 02:02:48;;;;;;;;;15.20;15.20;;;;;;;;5251296;28;8763;-67
2022/01/19 02:05:23;;;;;;;;;8.80;8.00;;;;;;;;5234661;28;9467;-67
2022/01/19 02:08:09;;;;;;;;;29.80;26.80;;;;;;;;5269677;28;8761;-68
2022/01/19 02:11:02;;;;;;;;;51.20;47.00;;;;;;;;5268705;28;8757;-68
2022/01/19 02:21:56;;;;;;;;;13.40;11.60;;;;;;;;5267965;28;8895;-69
2022/01/19 02:24:32;;;;;;;;;14.60;12.80;;;;;;;;5269413;28;8788;-69
2022/01/19 02:27:12;;;;;;;;;9.80;9.20;;;;;;;;5269868;28;8780;-69
2022/01/19 02:30:18;;;;;;;;;29.60;29.40;;;;;;;;5251472;28;9531;-69
2022/01/19 02:41:03;;;;;;;;;24.40;22.80;;;;;;;;5250843;28;8797;-69
2022/01/19 02:43:35;;;;;;;;;20.60;19.80;;;;;;;;5267933;28;8857;-68
2022/01/19 02:51:53;;;;;;;;;12.20;12.20;;;;;;;;5267606;28;8788;-68
2022/01/19 02:54:25;;;;;;;;;12.20;12.20;;;;;;;;5268024;28;8820;-68
2022/01/19 02:56:59;;;;;;;;;16.60;16.60;;;;;;;;5250568;28;8779;-68
2022/01/19 02:59:59;;;;;;;;;5.40;5.40;;;;;;;;5267179;28;9545;-68
2022/01/19 03:11:35;;;;;;;;;45.80;41.40;;;;;;;;5228978;28;8790;-68
2022/01/19 03:14:08;;;;;;;;;41.40;41.40;;;;;;;;5243317;28;8796;-67
2022/01/19 03:16:40;;;;;;;;;59.20;47.80;;;;;;;;5266530;28;8820;-68
2022/01/19 03:19:30;;;;;;;;;23.40;23.40;;;;;;;;5267321;28;8835;-67
2022/01/19 03:22:01;;;;;;;;;11.60;11.60;;;;;;;;5265991;28;8800;-68
2022/01/19 03:24:38;;;;;;;;;9.20;9.20;;;;;;;;5283217;28;8789;-67
2022/01/19 03:27:09;;;;;;;;;41.00;39.60;;;;;;;;5284355;28;8862;-67
2022/01/19 03:29:48;;;;;;;;;15.60;15.60;;;;;;;;5251151;28;9516;-67
2022/01/19 03:32:38;;;;;;;;;13.80;13.40;;;;;;;;5266449;28;8805;-68
2022/01/19 03:35:10;;;;;;;;;9.40;8.80;;;;;;;;5250315;28;8796;-68
2022/01/19 03:37:41;;;;;;;;;16.80;16.80;;;;;;;;5249721;28;8815;-68
2022/01/19 03:40:13;;;;;;;;;16.40;15.40;;;;;;;;5249495;28;9560;-68
2022/01/19 03:42:44;;;;;;;;;74.00;53.60;;;;;;;;5266118;28;8903;-67
2022/01/19 03:45:16;;;;;;;;;46.00;29.20;;;;;;;;5266790;28;8811;-68
2022/01/19 03:48:12;;;;;;;;;41.00;38.60;;;;;;;;5267312;28;8756;-68
2022/01/19 03:50:44;;;;;;;;;32.00;31.40;;;;;;;;5268261;28;8812;-68
2022/01/19 03:53:15;;;;;;;;;28.20;27.00;;;;;;;;5267682;28;8789;-68
2022/01/19 03:55:46;;;;;;;;;28.80;28.20;;;;;;;;5267099;28;8782;-68
2022/01/19 04:02:41;;;;;;;;;28.40;27.60;;;;;;;;5267068;28;9501;-69
2022/01/19 04:05:22;;;;;;;;;4.40;4.40;;;;;;;;5249271;28;8786;-69
2022/01/19 04:07:53;;;;;;;;;16.40;16.40;;;;;;;;5249554;28;8825;-69
2022/01/19 04:10:24;;;;;;;;;24.60;23.20;;;;;;;;5250026;28;8780;-69
2022/01/19 04:13:08;;;;;;;;;11.20;11.20;;;;;;;;5266809;28;8760;-69
2022/01/19 04:15:39;;;;;;;;;12.00;12.00;;;;;;;;5249668;28;9484;-69
2022/01/19 04:18:10;;;;;;;;;14.60;14.40;;;;;;;;5249210;28;8800;-69
2022/01/19 04:20:44;;;;;;;;;9.00;9.00;;;;;;;;5267377;28;8756;-68
2022/01/19 04:23:16;;;;;;;;;9.80;9.20;;;;;;;;5248940;28;8893;-68
2022/01/19 04:25:47;;;;;;;;;10.00;9.40;;;;;;;;5266566;28;8830;-70
2022/01/19 04:28:18;;;;;;;;;20.50;20.50;;;;;;;;5266168;28;8812;-69
2022/01/19 04:30:53;;;;;;;;;12.20;11.80;;;;;;;;5249470;28;8816;-69
2022/01/19 04:33:30;;;;;;;;;6.20;6.20;;;;;;;;5268383;28;8768;-69
2022/01/19 04:36:31;;;;;;;;;6.00;6.00;;;;;;;;5269583;28;8853;-69
2022/01/19 04:43:45;;;;;;;;;4.80;4.80;;;;;;;;5270966;28;8888;-68
2022/01/19 04:45:52;;;;;;;;;12.20;12.00;;;;;;;;5269909;28;8780;-69
2022/01/19 05:07:37;;;;;;;;;14.60;12.00;;;;;;;;5252203;28;8837;-67
2022/01/19 05:13:26;;;;;;;;;18.80;18.00;;;;;;;;5269065;28;8796;-69
2022/01/19 05:15:58;;;;;;;;;22.00;20.60;;;;;;;;5269604;28;9441;-69
2022/01/19 05:18:29;;;;;;;;;19.00;18.00;;;;;;;;5269830;28;8804;-68
2022/01/19 05:21:00;;;;;;;;;7.80;6.00;;;;;;;;5270684;28;8811;-68
2022/01/19 05:24:06;;;;;;;;;0.00;0.00;;;;;;;;5246237;28;8792;-68
2022/01/19 05:26:39;;;;;;;;;0.60;0.60;;;;;;;;5270489;28;8792;-67
2022/01/19 05:29:12;;;;;;;;;10.20;10.20;;;;;;;;5270178;28;8777;-68
2022/01/19 05:31:44;;;;;;;;;4.00;4.00;;;;;;;;5252087;28;8831;-69
2022/01/19 05:34:15;;;;;;;;;7.00;7.00;;;;;;;;5251833;28;8827;-68
2022/01/19 05:37:05;;;;;;;;;5.20;5.20;;;;;;;;5257509;28;8810;-67
2022/01/19 05:39:50;;;;;;;;;10.00;10.00;;;;;;;;5268819;28;8828;-68
2022/01/19 05:42:29;;;;;;;;;12.00;10.80;;;;;;;;5251526;28;8783;-67
2022/01/19 05:45:00;;;;;;;;;9.20;9.20;;;;;;;;5267297;28;8814;-67
2022/01/19 05:47:49;;;;;;;;;4.80;4.80;;;;;;;;5270270;28;9677;-68
2022/01/19 05:50:21;;;;;;;;;3.00;3.00;;;;;;;;5269513;28;8789;-68
2022/01/19 05:53:04;;;;;;;;;6.00;5.60;;;;;;;;5268795;28;8812;-67
2022/01/19 05:55:36;;;;;;;;;3.40;3.20;;;;;;;;5251600;28;8907;-68
2022/01/19 06:02:30;;;;;;;;;1.00;1.00;;;;;;;;5269261;28;8731;-68
2022/01/19 06:05:02;;;;;;;;;8.60;8.20;;;;;;;;5218133;28;9512;-69
2022/01/19 06:07:49;;;;;;;;;9.00;9.00;;;;;;;;5236931;28;8778;-68
2022/01/19 06:10:42;;;;;;;;;9.20;8.20;;;;;;;;5251629;28;9509;-67
2022/01/19 06:13:18;;;;;;;;;16.20;16.20;;;;;;;;5232924;28;9499;-68
2022/01/19 06:15:49;;;;;;;;;12.20;11.60;;;;;;;;5271944;28;8782;-69
2022/01/19 06:22:43;;;;;;;;;20.60;20.60;;;;;;;;5289863;28;8702;-68
2022/01/19 06:25:16;;;;;;;;;4.00;4.00;;;;;;;;5288892;28;8866;-69
2022/01/19 06:27:47;;;;;;;;;7.20;7.20;;;;;;;;5271504;28;8870;-69
2022/01/19 06:30:18;;;;;;;;;4.00;4.00;;;;;;;;5289116;28;8766;-69
2022/01/19 06:32:51;;;;;;;;;1.00;1.00;;;;;;;;5271031;28;8878;-70
2022/01/19 06:35:22;;;;;;;;;13.80;12.80;;;;;;;;5288462;28;8763;-70
2022/01/19 06:38:10;;;;;;;;;12.60;11.20;;;;;;;;5256756;28;8826;-70
2022/01/19 06:41:00;;;;;;;;;10.40;10.40;;;;;;;;5290071;28;8786;-70
2022/01/19 06:43:31;;;;;;;;;4.80;4.00;;;;;;;;5289458;28;8834;-70
2022/01/19 06:46:02;;;;;;;;;14.25;11.75;;;;;;;;5271935;28;8758;-70
2022/01/19 06:48:33;;;;;;;;;12.40;12.40;;;;;;;;5271160;28;8793;-69
2022/01/19 06:55:31;;;;;;;;;6.40;6.40;;;;;;;;5289143;28;8738;-70
2022/01/19 06:58:05;;;;;;;;;4.40;4.00;;;;;;;;5270936;28;8809;-68
2022/01/19 07:00:47;;;;;;;;;19.80;19.80;;;;;;;;5271455;28;8754;-69
2022/01/19 07:03:28;;;;;;;;;15.40;14.20;;;;;;;;5255678;28;8796;-72
2022/01/19 07:06:11;;;;;;;;;6.40;6.40;;;;;;;;5289596;28;8797;-70
2022/01/19 07:09:03;;;;;;;;;3.80;3.80;;;;;;;;5273157;28;8786;-70
2022/01/19 07:11:36;;;;;;;;;4.60;4.60;;;;;;;;5289587;28;8784;-69
2022/01/19 07:14:08;;;;;;;;;4.80;4.80;;;;;;;;5287605;28;8774;-70
2022/01/19 07:16:40;;;;;;;;;0.00;0.00;;;;;;;;5271677;28;9849;-69
2022/01/19 07:19:13;;;;;;;;;21.00;21.00;;;;;;;;5271117;28;9560;-70
2022/01/19 07:21:45;;;;;;;;;8.80;8.80;;;;;;;;5271457;28;8781;-69
2022/01/19 07:24:16;;;;;;;;;6.20;6.20;;;;;;;;5287657;28;8777;-69
2022/01/19 07:26:48;;;;;;;;;4.40;4.40;;;;;;;;5287843;28;8785;-70
2022/01/19 07:29:21;;;;;;;;;3.00;3.00;;;;;;;;5270192;28;8804;-69
2022/01/19 07:31:58;;;;;;;;;25.60;25.60;;;;;;;;5287634;28;9496;-70
2022/01/19 07:34:31;;;;;;;;;18.20;18.20;;;;;;;;5287610;28;8800;-70
2022/01/19 07:37:07;;;;;;;;;12.20;12.20;;;;;;;;5270588;28;8746;-70
2022/01/19 07:39:39;;;;;;;;;7.40;7.00;;;;;;;;5270467;28;8806;-70
2022/01/19 07:42:29;;;;;;;;;7.00;7.00;;;;;;;;5288634;28;8761;-71
2022/01/19 07:45:09;;;;;;;;;8.60;8.60;;;;;;;;5288852;28;8787;-68
2022/01/19 07:48:12;;;;;;;;;6.60;6.60;;;;;;;;5288352;28;8772;-69
2022/01/19 07:51:07;;;;;;;;;11.20;11.20;;;;;;;;5253558;28;8795;-69
2022/01/19 07:54:01;;;;;;;;;9.80;9.80;;;;;;;;5259069;28;8769;-70
2022/01/19 07:57:01;;;;;;;;;14.40;14.00;;;;;;;;5253236;28;8797;-69
2022/01/19 08:00:00;;;;;;;;;6.60;6.60;;;;;;;;5288445;28;8758;-69
2022/01/19 08:02:49;;;;;;;;;1.00;1.00;;;;;;;;5288873;28;9560;-70
2022/01/19 08:05:40;;;;;;;;;9.00;9.00;;;;;;;;5286484;28;8828;-70
2022/01/19 08:08:12;;;;;;;;;13.40;13.40;;;;;;;;5288964;28;9502;-70
2022/01/19 08:10:45;;;;;;;;;14.00;12.75;;;;;;;;5292110;28;8900;-69
2022/01/19 08:13:17;;;;;;;;;5.20;5.20;;;;;;;;5290659;28;9646;-70
2022/01/19 08:15:49;;;;;;;;;0.60;0.60;;;;;;;;5291109;28;8778;-69
2022/01/19 08:18:20;;;;;;;;;7.00;7.00;;;;;;;;5274479;28;8821;-69
2022/01/19 08:20:51;;;;;;;;;18.25;17.50;;;;;;;;5257394;28;9497;-70
2022/01/19 08:23:26;;;;;;;;;6.40;6.40;;;;;;;;5291146;28;11459;-69
2022/01/19 08:26:00;;;;;;;;;3.60;3.60;;;;;;;;5274910;28;8837;-68
2022/01/19 08:28:32;;;;;;;;;3.40;3.40;;;;;;;;5274524;28;8866;-69
2022/01/19 08:31:03;;;;;;;;;4.20;4.20;;;;;;;;5291067;28;8814;-69
2022/01/19 08:34:10;;;;;;;;;14.20;14.20;;;;;;;;5247953;28;8822;-70
2022/01/19 08:37:01;;;;;;;;;3.80;3.80;;;;;;;;5288843;28;8828;-70
2022/01/19 08:39:45;;;;;;;;;3.60;3.60;;;;;;;;5274472;28;8798;-68
2022/01/19 08:42:17;;;;;;;;;10.60;10.40;;;;;;;;5273743;28;8805;-68
2022/01/19 08:44:52;;;;;;;;;9.60;9.20;;;;;;;;5274189;28;8869;-67
2022/01/19 08:47:30;;;;;;;;;9.00;9.00;;;;;;;;5256905;28;8780;-68
2022/01/19 08:50:13;;;;;;;;;17.60;16.80;;;;;;;;5257004;28;8780;-68
2022/01/19 08:53:02;;;;;;;;;24.80;24.80;;;;;;;;5273908;28;8774;-68
2022/01/19 08:55:56;;;;;;;;;16.20;15.40;;;;;;;;5288372;28;9527;-68
2022/01/19 08:58:27;;;;;;;;;9.75;9.75;;;;;;;;5270936;28;8793;-69
2022/01/19 09:00:58;;;;;;;;;15.00;15.00;;;;;;;;5270866;28;8796;-69
2022/01/19 09:03:30;;;;;;;;;14.00;14.00;;;;;;;;5270487;28;11396;-69
2022/01/19 09:06:01;;;;;;;;;13.00;11.20;;;;;;;;5252997;28;8920;-69
2022/01/19 09:08:34;;;;;;;;;6.00;4.75;;;;;;;;5252165;28;9578;-69
2022/01/19 09:11:06;;;;;;;;;14.00;14.00;;;;;;;;5270369;28;8865;-69
2022/01/19 09:13:55;;;;;;;;;15.80;13.80;;;;;;;;5270914;28;8776;-69
2022/01/19 09:16:26;;;;;;;;;2.80;2.80;;;;;;;;5269153;28;9631;-69
2022/01/19 09:18:57;;;;;;;;;5.50;5.50;;;;;;;;5269130;28;8915;-69
2022/01/19 09:21:28;;;;;;;;;11.75;11.25;;;;;;;;5270571;28;8784;-69
2022/01/19 09:23:59;;;;;;;;;39.60;37.00;;;;;;;;5268846;28;8823;-69
2022/01/19 09:26:30;;;;;;;;;13.50;13.50;;;;;;;;5270341;28;8836;-69
2022/01/19 09:29:02;;;;;;;;;29.00;27.20;;;;;;;;5252013;28;8780;-69
2022/01/19 09:31:33;;;;;;;;;24.00;23.40;;;;;;;;5270006;28;8800;-69
2022/01/19 09:34:23;;;;;;;;;14.40;14.40;;;;;;;;5270164;28;8934;-69
2022/01/19 09:36:54;;;;;;;;;18.00;18.00;;;;;;;;5251734;28;8775;-69
2022/01/19 09:39:26;;;;;;;;;21.40;21.40;;;;;;;;5251580;28;8790;-69
2022/01/19 09:42:15;;;;;;;;;18.60;18.60;;;;;;;;5255230;28;8770;-69
2022/01/19 09:45:05;;;;;;;;;10.60;10.60;;;;;;;;5251629;28;8781;-69
2022/01/19 09:47:35;;;;;;;;;16.20;16.20;;;;;;;;5252075;28;8780;-69
2022/01/19 09:50:06;;;;;;;;;29.25;25.00;;;;;;;;5252257;28;8773;-69
2022/01/19 09:52:56;;;;;;;;;28.60;27.80;;;;;;;;5269599;28;8757;-69
2022/01/19 09:55:27;;;;;;;;;20.60;20.00;;;;;;;;5269836;28;8761;-69
2022/01/19 09:57:58;;;;;;;;;6.75;6.75;;;;;;;;5268462;28;8888;-69
2022/01/19 10:00:30;;;;;;;;;6.00;6.00;;;;;;;;5268574;28;8780;-69
2022/01/19 10:03:14;;;;;;;;;16.20;16.20;;;;;;;;5270128;28;11440;-69
2022/01/19 10:05:55;;;;;;;;;10.80;10.80;;;;;;;;5268244;28;8769;-69
2022/01/19 10:08:49;;;;;;;;;4.40;4.40;;;;;;;;5253696;28;8894;-69
2022/01/19 10:16:58;;;;;;;;;11.20;10.80;;;;;;;;5269323;28;8760;-69
2022/01/19 10:17:10;;;;;;;;;11.40;11.40;;;;;;;;5269202;28;8761;-69
2022/01/19 10:19:43;;;;;;;;;21.00;21.00;;;;;;;;5234298;28;8841;-69
2022/01/19 10:22:33;;;;;;;;;9.00;9.00;;;;;;;;5254391;28;8769;-69
2022/01/19 10:25:05;;;;;;;;;1.50;1.50;;;;;;;;5267632;28;8811;-69
2022/01/19 10:27:37;;;;;;;;;6.00;5.40;;;;;;;;5267888;28;11435;-68
2022/01/19 10:30:08;;;;;;;;;10.00;10.00;;;;;;;;5268065;28;8787;-69
2022/01/19 10:32:41;;;;;;;;;7.40;7.40;;;;;;;;5269578;28;8812;-69
2022/01/19 10:35:12;;;;;;;;;10.60;10.00;;;;;;;;5268597;28;8811;-69
2022/01/19 10:37:44;;;;;;;;;31.25;29.75;;;;;;;;5267271;28;8785;-69
2022/01/19 10:40:17;;;;;;;;;30.40;30.40;;;;;;;;5266733;28;8807;-70
2022/01/19 10:42:48;;;;;;;;;41.40;39.20;;;;;;;;5267251;28;8773;-70
2022/01/19 10:45:19;;;;;;;;;47.25;43.25;;;;;;;;5269105;28;8780;-70
2022/01/19 10:47:53;;;;;;;;;46.00;44.00;;;;;;;;5268394;28;11455;-70
2022/01/19 10:50:28;;;;;;;;;34.80;32.60;;;;;;;;5266789;28;8792;-70
2022/01/19 10:53:19;;;;;;;;;40.00;38.40;;;;;;;;5267257;28;8786;-69
2022/01/19 10:55:50;;;;;;;;;32.80;30.60;;;;;;;;5267002;28;8792;-69
2022/01/19 10:58:22;;;;;;;;;31.50;30.75;;;;;;;;5249832;28;9570;-69
2022/01/19 11:01:12;;;;;;;;;39.40;35.00;;;;;;;;5266976;28;10018;-69
2022/01/19 11:03:43;;;;;;;;;29.40;28.60;;;;;;;;5267222;28;8788;-70
2022/01/19 11:06:13;;;;;;;;;28.00;28.00;;;;;;;;5267721;28;8819;-69
2022/01/19 11:08:48;;;;;;;;;28.00;28.00;;;;;;;;5267801;28;11549;-69
2022/01/19 11:11:22;;;;;;;;;26.00;26.00;;;;;;;;5267405;28;9792;-69
2022/01/19 11:14:16;;;;;;;;;24.20;22.00;;;;;;;;5267853;28;8938;-68
2022/01/19 11:16:48;;;;;;;;;21.20;20.40;;;;;;;;5266706;28;8780;-68
2022/01/19 11:19:19;;;;;;;;;26.60;25.80;;;;;;;;5266467;28;8954;-68
2022/01/19 11:21:55;;;;;;;;;45.40;44.40;;;;;;;;5266900;28;8792;-69
2022/01/19 11:24:34;;;;;;;;;30.60;30.20;;;;;;;;5250037;28;9508;-69
2022/01/19 11:27:05;;;;;;;;;83.80;62.40;;;;;;;;5268003;28;8763;-68
2022/01/19 11:34:14;;;;;;;;;16.20;16.20;;;;;;;;5267422;28;8767;-68
2022/01/19 11:36:45;;;;;;;;;22.80;20.80;;;;;;;;5249864;28;8763;-68
2022/01/19 11:39:19;;;;;;;;;24.00;23.00;;;;;;;;5267316;28;8821;-68
2022/01/19 11:41:54;;;;;;;;;26.60;25.20;;;;;;;;5249495;28;8802;-69
2022/01/19 11:44:28;;;;;;;;;46.00;40.60;;;;;;;;5249460;28;9438;-69
2022/01/19 11:47:21;;;;;;;;;41.40;34.80;;;;;;;;5249176;28;8766;-69
2022/01/19 11:50:06;;;;;;;;;46.80;42.00;;;;;;;;5249484;28;8940;-69
2022/01/19 11:52:41;;;;;;;;;28.80;28.00;;;;;;;;5250605;28;8839;-69
2022/01/19 11:55:12;;;;;;;;;26.60;26.60;;;;;;;;5267227;28;8806;-69
2022/01/19 11:57:44;;;;;;;;;23.50;23.50;;;;;;;;5267084;28;8833;-69
2022/01/19 12:00:15;;;;;;;;;44.60;40.00;;;;;;;;5249236;28;8797;-68
2022/01/19 12:02:54;;;;;;;;;73.25;61.75;;;;;;;;5249223;28;8767;-69
2022/01/19 12:05:27;;;;;;;;;53.60;46.80;;;;;;;;5232937;28;10987;-69
2022/01/19 12:07:59;;;;;;;;;43.20;42.40;;;;;;;;5232486;28;8901;-69
2022/01/19 12:10:38;;;;;;;;;38.60;38.60;;;;;;;;5249625;28;8775;-68
2022/01/19 12:16:20;;;;;;;;;38.60;37.80;;;;;;;;5267217;28;8763;-69
2022/01/19 12:18:51;;;;;;;;;85.50;69.25;;;;;;;;5232556;28;9470;-68
2022/01/19 12:21:21;;;;;;;;;75.33;61.00;;;;;;;;5248893;28;8852;-67
2022/01/19 12:23:52;;;;;;;;;79.67;66.33;;;;;;;;5248819;28;8786;-68
2022/01/19 12:26:23;;;;;;;;;88.33;69.00;;;;;;;;5232467;28;8817;-68
2022/01/19 12:28:54;;;;;;;;;103.67;84.67;;;;;;;;5248677;28;9515;-68
2022/01/19 12:31:26;;;;;;;;;105.00;82.67;;;;;;;;5249187;28;8916;-68
2022/01/19 12:34:03;;;;;;;;;113.50;90.25;;;;;;;;5267185;28;10014;-69
2022/01/19 12:36:41;;;;;;;;;117.75;105.75;;;;;;;;5266611;28;10623;-70
2022/01/19 12:39:25;;;;;;;;;140.75;123.75;;;;;;;;5232937;28;10253;-70
2022/01/19 12:41:58;;;;;;;;;146.75;126.00;;;;;;;;5232554;28;11114;-67
2022/01/19 12:44:35;;;;;;;;;138.25;109.25;;;;;;;;5232292;28;11577;-69
2022/01/19 12:47:24;;;;;;;;;144.00;122.50;;;;;;;;5266764;28;11495;-69
2022/01/19 12:49:55;;;;;;;;;96.67;72.00;;;;;;;;5232142;28;10897;-67
2022/01/19 12:52:27;;;;;;;;;100.67;79.00;;;;;;;;5266976;28;9493;-67
2022/01/19 12:55:08;;;;;;;;;90.00;69.50;;;;;;;;5251628;28;8975;-69
2022/01/19 12:57:39;;;;;;;;;111.00;79.00;;;;;;;;5270615;28;8797;-69
2022/01/19 13:00:12;;;;;;;;;110.00;85.50;;;;;;;;5271150;28;8866;-69
2022/01/19 13:07:27;;;;;;;;;103.50;80.00;;;;;;;;5270164;28;8870;-70
2022/01/19 13:10:17;;;;;;;;;115.67;90.67;;;;;;;;5219918;28;8783;-70
2022/01/19 13:13:12;;;;;;;;;98.50;77.00;;;;;;;;5270457;28;8865;-71
2022/01/19 13:15:44;;;;;;;;;85.75;67.75;;;;;;;;5270817;28;8775;-71
2022/01/19 13:18:17;;;;;;;;;65.60;54.40;;;;;;;;5235473;28;8871;-71
2022/01/19 13:20:51;;;;;;;;;76.80;62.60;;;;;;;;5252513;28;8779;-71
2022/01/19 13:24:00;;;;;;;;;70.40;57.00;;;;;;;;5255368;28;8782;-71
2022/01/19 13:26:41;;;;;;;;;89.50;71.25;;;;;;;;5252587;28;9505;-71
2022/01/19 13:29:13;;;;;;;;;96.00;74.25;;;;;;;;5270234;28;8843;-71
2022/01/19 13:31:54;;;;;;;;;88.25;67.00;;;;;;;;5252118;28;8774;-69
2022/01/19 13:34:26;;;;;;;;;92.25;71.50;;;;;;;;5270308;28;8751;-70
2022/01/19 13:37:01;;;;;;;;;90.50;71.75;;;;;;;;5270393;28;8901;-71
2022/01/19 13:39:33;;;;;;;;;76.75;64.50;;;;;;;;5252509;28;8805;-71
2022/01/19 13:42:04;;;;;;;;;59.00;51.40;;;;;;;;5251577;28;8886;-71
2022/01/19 13:44:54;;;;;;;;;61.20;49.80;;;;;;;;5270043;28;8823;-71
2022/01/19 13:47:30;;;;;;;;;47.40;43.40;;;;;;;;5251837;28;8767;-71
2022/01/19 13:50:01;;;;;;;;;66.80;54.00;;;;;;;;5252034;28;8774;-71
2022/01/19 13:52:33;;;;;;;;;78.80;59.20;;;;;;;;5269827;28;8762;-71
2022/01/19 13:55:04;;;;;;;;;86.75;63.50;;;;;;;;5251187;28;9525;-71
2022/01/19 13:57:35;;;;;;;;;87.00;69.60;;;;;;;;5269477;28;9536;-71
2022/01/19 14:00:10;;;;;;;;;91.50;72.25;;;;;;;;5218245;28;8928;-70
2022/01/19 14:03:01;;;;;;;;;86.50;64.25;;;;;;;;5234733;28;8790;-72
2022/01/19 14:05:39;;;;;;;;;78.25;64.00;;;;;;;;5268944;28;8797;-70
2022/01/19 14:08:11;;;;;;;;;84.00;64.00;;;;;;;;5251687;28;8774;-71
2022/01/19 14:10:42;;;;;;;;;61.80;35.00;;;;;;;;5250833;28;8771;-71
2022/01/19 14:13:21;;;;;;;;;54.75;47.75;;;;;;;;5251071;28;8767;-71
2022/01/19 14:16:15;;;;;;;;;65.80;48.40;;;;;;;;5251147;28;9316;-70
2022/01/19 14:19:24;;;;;;;;;57.00;48.20;;;;;;;;5250568;28;8783;-71
2022/01/19 14:22:06;;;;;;;;;63.40;53.20;;;;;;;;5163921;28;8786;-71
2022/01/19 14:24:40;;;;;;;;;37.20;35.80;;;;;;;;5163997;28;8791;-71
2022/01/19 14:27:16;;;;;;;;;56.60;48.20;;;;;;;;5214471;28;8956;-70
2022/01/19 14:29:54;;;;;;;;;80.00;64.50;;;;;;;;5268804;28;8783;-72
2022/01/19 14:32:51;;;;;;;;;109.00;91.00;;;;;;;;5268793;28;8809;-72
2022/01/19 14:35:23;;;;;;;;;107.50;89.25;;;;;;;;5264120;28;9184;-70
2022/01/19 14:38:14;;;;;;;;;107.00;79.00;;;;;;;;5250043;28;9882;-70
2022/01/19 14:40:50;;;;;;;;;85.50;69.50;;;;;;;;5268561;28;9259;-71
2022/01/19 14:43:23;;;;;;;;;77.80;59.40;;;;;;;;5250513;28;9598;-70
2022/01/19 14:46:02;;;;;;;;;60.80;53.40;;;;;;;;5250630;28;8795;-71
2022/01/19 14:48:38;;;;;;;;;50.60;47.00;;;;;;;;5268574;28;8787;-71
2022/01/19 14:51:15;;;;;;;;;46.00;40.00;;;;;;;;5268207;28;8787;-70
2022/01/19 14:53:48;;;;;;;;;29.20;26.00;;;;;;;;5234191;28;8805;-71
2022/01/19 14:56:19;;;;;;;;;39.80;39.80;;;;;;;;5268079;28;8809;-69
2022/01/19 14:59:03;;;;;;;;;36.75;36.00;;;;;;;;5250937;28;9517;-71
2022/01/19 15:01:35;;;;;;;;;32.40;30.40;;;;;;;;5268997;28;11409;-71
2022/01/19 15:04:07;;;;;;;;;39.20;36.80;;;;;;;;5233968;28;8876;-72
2022/01/19 15:06:41;;;;;;;;;39.00;38.00;;;;;;;;5269171;28;8779;-70
2022/01/19 15:13:36;;;;;;;;;93.50;74.00;;;;;;;;5289122;28;8712;-70
2022/01/19 15:16:09;;;;;;;;;127.25;104.00;;;;;;;;5289066;28;8769;-68
2022/01/19 15:18:41;;;;;;;;;125.50;102.00;;;;;;;;5289260;28;10402;-69
2022/01/19 15:21:12;;;;;;;;;106.67;80.00;;;;;;;;5271019;28;11218;-68
2022/01/19 15:23:43;;;;;;;;;94.50;72.00;;;;;;;;5270635;28;10076;-69
2022/01/19 15:26:14;;;;;;;;;88.00;69.25;;;;;;;;5288995;28;8773;-69
2022/01/19 15:28:45;;;;;;;;;65.33;52.33;;;;;;;;5289144;28;8761;-67
2022/01/19 15:31:17;;;;;;;;;53.80;48.40;;;;;;;;5289809;28;8760;-69
2022/01/19 15:33:50;;;;;;;;;28.40;25.00;;;;;;;;5288985;28;8812;-69
2022/01/19 15:36:22;;;;;;;;;31.20;30.60;;;;;;;;5288614;28;8977;-69
2022/01/19 15:38:53;;;;;;;;;44.40;42.80;;;;;;;;5270412;28;8884;-69
2022/01/19 15:41:24;;;;;;;;;60.20;49.80;;;;;;;;5270408;28;8772;-68
2022/01/19 15:43:55;;;;;;;;;69.00;59.00;;;;;;;;5270446;28;8760;-70
2022/01/19 15:46:44;;;;;;;;;136.75;101.50;;;;;;;;5270859;28;8760;-69
2022/01/19 15:49:15;;;;;;;;;113.25;87.50;;;;;;;;5288333;28;10416;-68
2022/01/19 15:51:49;;;;;;;;;144.25;108.50;;;;;;;;5248841;28;11509;-70
2022/01/19 15:54:21;;;;;;;;;106.33;75.00;;;;;;;;5249531;28;10328;-68
2022/01/19 15:56:53;;;;;;;;;150.50;113.00;;;;;;;;5267084;28;9438;-71
2022/01/19 16:08:23;;;;;;;;;42.80;41.20;;;;;;;;5287919;28;8725;-68
2022/01/19 16:10:55;;;;;;;;;45.60;42.60;;;;;;;;5287615;28;8752;-69
2022/01/19 16:13:28;;;;;;;;;50.20;46.80;;;;;;;;5270024;28;8781;-69
2022/01/19 16:15:59;;;;;;;;;65.20;55.80;;;;;;;;5269779;28;8809;-70
2022/01/19 16:18:30;;;;;;;;;78.33;64.67;;;;;;;;5252928;28;8804;-70
2022/01/19 16:21:06;;;;;;;;;88.33;66.67;;;;;;;;5269306;28;11442;-71
2022/01/19 16:26:26;;;;;;;;;84.00;67.00;;;;;;;;5270054;28;8785;-70
2022/01/19 16:29:16;;;;;;;;;53.00;46.00;;;;;;;;5257969;28;8788;-69
2022/01/19 16:31:50;;;;;;;;;57.40;48.20;;;;;;;;5257762;28;9442;-70
2022/01/19 16:34:22;;;;;;;;;58.75;52.25;;;;;;;;5292356;28;8876;-69
2022/01/19 16:36:53;;;;;;;;;60.75;52.00;;;;;;;;5257412;28;8796;-69
2022/01/19 16:39:42;;;;;;;;;52.00;41.60;;;;;;;;5259136;28;8850;-70
2022/01/19 16:46:39;;;;;;;;;17.20;17.20;;;;;;;;5291241;28;8717;-68
2022/01/19 16:49:17;;;;;;;;;16.20;13.80;;;;;;;;5291864;28;8780;-70
2022/01/19 16:51:48;;;;;;;;;18.20;18.20;;;;;;;;5292209;28;8799;-69
2022/01/19 16:54:19;;;;;;;;;22.60;21.00;;;;;;;;5273625;28;9493;-70
2022/01/19 16:56:50;;;;;;;;;18.60;17.20;;;;;;;;5256865;28;8768;-69
2022/01/19 16:59:21;;;;;;;;;23.60;22.40;;;;;;;;5273271;28;8804;-70
2022/01/19 17:01:52;;;;;;;;;17.00;17.00;;;;;;;;5273219;28;8789;-69
2022/01/19 17:04:23;;;;;;;;;17.00;15.40;;;;;;;;5273289;28;8768;-70
2022/01/19 17:07:12;;;;;;;;;24.80;21.00;;;;;;;;5291824;28;8809;-70
2022/01/19 17:10:08;;;;;;;;;22.60;22.60;;;;;;;;5272802;28;8892;-69
2022/01/19 17:12:41;;;;;;;;;32.60;27.20;;;;;;;;5256921;28;8780;-69
2022/01/19 17:15:38;;;;;;;;;33.60;32.00;;;;;;;;5291012;28;8775;-70
2022/01/19 17:18:08;;;;;;;;;49.80;41.60;;;;;;;;5291848;28;9488;-68
2022/01/19 17:20:58;;;;;;;;;33.20;31.60;;;;;;;;5258951;28;9500;-67
2022/01/19 17:23:29;;;;;;;;;27.50;21.75;;;;;;;;5291165;28;8772;-70
2022/01/19 17:26:00;;;;;;;;;18.25;18.00;;;;;;;;5273350;28;8819;-69